Terminal Aerodrome Forecast
Issued by NWS

Home | Current Version | Previous Version | Text Only | Print | Product List | Glossary On
Versions: 1 2 3 4 5 6 7 8 9 10 11 12 13 14 15 16 17 18 19 20 21
865
FTUS46 KSEW 211123
TAFBFI
TAF
KBFI 211123Z 2112/2212 00000KT P6SM FEW120 BKN220
     FM211300 00000KT P6SM -RA OVC050
     FM211400 00000KT 4SM -RA BR OVC025 WS020/19030KT
     FM211800 VRB02KT 2SM -RA BR OVC020 WS020/19035KT
     FM212300 15006KT 6SM -SHRA BKN030 OVC050
     FM220200 17009KT 6SM -SHRA OVC030=

USA.gov is the U.S. government's official web portal to all federal, state and local government web resources and services.